sensor_id;sensor_type;location;lat;lon;timestamp;pressure;altitude;pressure_sealevel;temperature;humidity
3780;BME280;1905;52.482;9.802;2022-10-23T00:00:00;101158.00;;;12.68;87.18
3780;BME280;1905;52.482;9.802;2022-10-23T00:02:29;101147.53;;;12.65;87.49
3780;BME280;1905;52.482;9.802;2022-10-23T00:04:57;101138.81;;;12.63;87.16
3780;BME280;1905;52.482;9.802;2022-10-23T00:07:25;101147.69;;;12.62;87.25
3780;BME280;1905;52.482;9.802;2022-10-23T00:09:54;101145.16;;;12.59;87.31
3780;BME280;1905;52.482;9.802;2022-10-23T00:12:21;101147.91;;;12.57;87.29
3780;BME280;1905;52.482;9.802;2022-10-23T00:14:49;101152.53;;;12.52;87.71
3780;BME280;1905;52.482;9.802;2022-10-23T00:17:16;101152.53;;;12.52;87.34
3780;BME280;1905;52.482;9.802;2022-10-23T00:19:44;101150.81;;;12.51;87.26
3780;BME280;1905;52.482;9.802;2022-10-23T00:22:12;101146.50;;;12.48;87.47
3780;BME280;1905;52.482;9.802;2022-10-23T00:24:39;101151.03;;;12.46;87.41
3780;BME280;1905;52.482;9.802;2022-10-23T00:27:08;101156.38;;;12.45;87.56
3780;BME280;1905;52.482;9.802;2022-10-23T00:29:36;101158.19;;;12.44;87.51
3780;BME280;1905;52.482;9.802;2022-10-23T00:32:05;101152.94;;;12.43;87.33
3780;BME280;1905;52.482;9.802;2022-10-23T00:34:32;101155.72;;;12.40;87.46
3780;BME280;1905;52.482;9.802;2022-10-23T00:37:02;101149.50;;;12.41;87.37
3780;BME280;1905;52.482;9.802;2022-10-23T00:39:29;101147.84;;;12.38;87.63
3780;BME280;1905;52.482;9.802;2022-10-23T00:41:57;101152.34;;;12.36;87.67
3780;BME280;1905;52.482;9.802;2022-10-23T00:47:31;101160.44;;;12.33;87.64
3780;BME280;1905;52.482;9.802;2022-10-23T00:49:59;101157.78;;;12.33;87.65
3780;BME280;1905;52.482;9.802;2022-10-23T00:52:27;101159.47;;;12.34;87.52
3780;BME280;1905;52.482;9.802;2022-10-23T00:54:56;101152.63;;;12.30;87.56
3780;BME280;1905;52.482;9.802;2022-10-23T00:57:25;101152.66;;;12.29;87.65
3780;BME280;1905;52.482;9.802;2022-10-23T00:59:57;101145.59;;;12.29;87.45
3780;BME280;1905;52.482;9.802;2022-10-23T01:02:25;101134.34;;;12.24;87.72
3780;BME280;1905;52.482;9.802;2022-10-23T01:04:54;101134.25;;;12.26;87.59
3780;BME280;1905;52.482;9.802;2022-10-23T01:07:27;101127.25;;;12.25;87.56
3780;BME280;1905;52.482;9.802;2022-10-23T01:10:02;101128.25;;;12.22;87.50
3780;BME280;1905;52.482;9.802;2022-10-23T01:12:36;101138.72;;;12.25;87.53
3780;BME280;1905;52.482;9.802;2022-10-23T01:15:14;101136.97;;;12.24;87.90
3780;BME280;1905;52.482;9.802;2022-10-23T01:17:46;101140.53;;;12.23;87.59
3780;BME280;1905;52.482;9.802;2022-10-23T01:20:31;101127.31;;;12.23;87.50
3780;BME280;1905;52.482;9.802;2022-10-23T01:23:11;101127.44;;;12.20;87.53
3780;BME280;1905;52.482;9.802;2022-10-23T01:26:00;101121.22;;;12.21;87.38
3780;BME280;1905;52.482;9.802;2022-10-23T01:28:39;101125.72;;;12.19;87.53
3780;BME280;1905;52.482;9.802;2022-10-23T01:31:12;101124.78;;;12.20;87.09
3780;BME280;1905;52.482;9.802;2022-10-23T01:33:46;101129.25;;;12.20;87.48
3780;BME280;1905;52.482;9.802;2022-10-23T01:36:25;101126.66;;;12.18;87.50
3780;BME280;1905;52.482;9.802;2022-10-23T01:39:00;101121.34;;;12.18;87.42
3780;BME280;1905;52.482;9.802;2022-10-23T01:41:34;101121.44;;;12.17;87.35
3780;BME280;1905;52.482;9.802;2022-10-23T01:44:08;101119.66;;;12.17;87.37
3780;BME280;1905;52.482;9.802;2022-10-23T01:46:38;101117.91;;;12.16;87.24
3780;BME280;1905;52.482;9.802;2022-10-23T01:49:10;101103.75;;;12.17;87.23
3780;BME280;1905;52.482;9.802;2022-10-23T01:51:43;101110.88;;;12.15;87.06
3780;BME280;1905;52.482;9.802;2022-10-23T01:54:13;101111.75;;;12.16;87.26
3780;BME280;1905;52.482;9.802;2022-10-23T01:56:44;101103.91;;;12.14;87.15
3780;BME280;1905;52.482;9.802;2022-10-23T01:59:18;101104.03;;;12.11;87.26
3780;BME280;1905;52.482;9.802;2022-10-23T02:01:50;101112.00;;;12.10;87.34
3780;BME280;1905;52.482;9.802;2022-10-23T02:04:23;101110.31;;;12.09;87.38
3780;BME280;1905;52.482;9.802;2022-10-23T02:06:52;101109.44;;;12.08;87.42
3780;BME280;1905;52.482;9.802;2022-10-23T02:09:20;101109.56;;;12.05;87.40
3780;BME280;1905;52.482;9.802;2022-10-23T02:11:52;101112.22;;;12.05;87.04
3780;BME280;1905;52.482;9.802;2022-10-23T02:14:32;101102.53;;;12.04;87.18
3780;BME280;1905;52.482;9.802;2022-10-23T02:17:08;101104.41;;;12.02;87.25
3780;BME280;1905;52.482;9.802;2022-10-23T02:19:46;101104.53;;;11.99;87.61
3780;BME280;1905;52.482;9.802;2022-10-23T02:22:21;101106.41;;;11.97;87.13
3780;BME280;1905;52.482;9.802;2022-10-23T02:24:52;101103.75;;;11.97;87.26
3780;BME280;1905;52.482;9.802;2022-10-23T02:27:25;101103.81;;;11.96;87.53
3780;BME280;1905;52.482;9.802;2022-10-23T02:30:02;101093.28;;;11.94;87.10
3780;BME280;1905;52.482;9.802;2022-10-23T02:32:33;101088.91;;;11.93;87.46
3780;BME280;1905;52.482;9.802;2022-10-23T02:35:02;101076.63;;;11.92;87.52
3780;BME280;1905;52.482;9.802;2022-10-23T02:37:30;101080.19;;;11.91;87.41
3780;BME280;1905;52.482;9.802;2022-10-23T02:40:00;101083.78;;;11.90;87.45
3780;BME280;1905;52.482;9.802;2022-10-23T02:42:40;101085.59;;;11.88;87.43
3780;BME280;1905;52.482;9.802;2022-10-23T02:45:16;101092.75;;;11.86;87.81
3780;BME280;1905;52.482;9.802;2022-10-23T02:47:51;101087.47;;;11.86;87.27
3780;BME280;1905;52.482;9.802;2022-10-23T02:50:28;101087.53;;;11.84;87.31
3780;BME280;1905;52.482;9.802;2022-10-23T02:53:06;101089.31;;;11.84;87.44
3780;BME280;1905;52.482;9.802;2022-10-23T02:55:44;101094.75;;;11.81;87.48
3780;BME280;1905;52.482;9.802;2022-10-23T02:58:19;101085.94;;;11.80;87.66
3780;BME280;1905;52.482;9.802;2022-10-23T03:00:54;101080.63;;;11.80;87.44
3780;BME280;1905;52.482;9.802;2022-10-23T03:03:26;101083.41;;;11.77;87.21
3780;BME280;1905;52.482;9.802;2022-10-23T03:05:56;101084.28;;;11.78;87.74
3780;BME280;1905;52.482;9.802;2022-10-23T03:08:24;101075.44;;;11.79;87.38
3780;BME280;1905;52.482;9.802;2022-10-23T03:10:52;101068.41;;;11.78;87.67
3780;BME280;1905;52.482;9.802;2022-10-23T03:13:21;101070.25;;;11.76;87.63
3780;BME280;1905;52.482;9.802;2022-10-23T03:15:52;101071.97;;;11.77;87.19
3780;BME280;1905;52.482;9.802;2022-10-23T03:18:20;101063.22;;;11.75;87.33
3780;BME280;1905;52.482;9.802;2022-10-23T03:20:49;101062.38;;;11.74;87.58
3780;BME280;1905;52.482;9.802;2022-10-23T03:23:20;101052.78;;;11.72;87.27
3780;BME280;1905;52.482;9.802;2022-10-23T03:25:48;101048.34;;;11.72;87.61
3780;BME280;1905;52.482;9.802;2022-10-23T03:28:29;101044.06;;;11.70;87.45
3780;BME280;1905;52.482;9.802;2022-10-23T03:30:59;101049.34;;;11.70;87.21
3780;BME280;1905;52.482;9.802;2022-10-23T03:33:27;101052.03;;;11.68;87.35
3780;BME280;1905;52.482;9.802;2022-10-23T03:36:03;101054.72;;;11.67;87.66
3780;BME280;1905;52.482;9.802;2022-10-23T03:38:33;101047.72;;;11.66;87.08
3780;BME280;1905;52.482;9.802;2022-10-23T03:41:02;101044.28;;;11.64;87.39
3780;BME280;1905;52.482;9.802;2022-10-23T03:43:30;101039.09;;;11.61;87.80
3780;BME280;1905;52.482;9.802;2022-10-23T03:45:59;101042.69;;;11.60;87.51
3780;BME280;1905;52.482;9.802;2022-10-23T03:48:28;101038.41;;;11.57;87.48
3780;BME280;1905;52.482;9.802;2022-10-23T03:50:57;101051.66;;;11.56;87.67
3780;BME280;1905;52.482;9.802;2022-10-23T03:53:25;101041.09;;;11.56;87.48
3780;BME280;1905;52.482;9.802;2022-10-23T03:55:52;101035.91;;;11.53;87.63
3780;BME280;1905;52.482;9.802;2022-10-23T03:58:20;101035.13;;;11.51;87.53
3780;BME280;1905;52.482;9.802;2022-10-23T04:00:49;101036.22;;;11.47;87.69
3780;BME280;1905;52.482;9.802;2022-10-23T04:03:18;101032.75;;;11.45;87.56
3780;BME280;1905;52.482;9.802;2022-10-23T04:05:45;101023.22;;;11.41;87.46
3780;BME280;1905;52.482;9.802;2022-10-23T04:08:15;101028.41;;;11.44;87.45
3780;BME280;1905;52.482;9.802;2022-10-23T04:10:48;101025.88;;;11.41;87.89
3780;BME280;1905;52.482;9.802;2022-10-23T04:13:19;101034.72;;;11.40;87.54
3780;BME280;1905;52.482;9.802;2022-10-23T04:15:47;101046.09;;;11.42;87.56
3780;BME280;1905;52.482;9.802;2022-10-23T04:18:16;101044.50;;;11.38;87.46
3780;BME280;1905;52.482;9.802;2022-10-23T04:20:47;101036.69;;;11.34;87.55
3780;BME280;1905;52.482;9.802;2022-10-23T04:23:16;101037.59;;;11.33;87.78
3780;BME280;1905;52.482;9.802;2022-10-23T04:25:45;101044.00;;;11.28;87.51
3780;BME280;1905;52.482;9.802;2022-10-23T04:28:22;101050.13;;;11.30;87.74
3780;BME280;1905;52.482;9.802;2022-10-23T04:30:50;101040.53;;;11.27;87.43
3780;BME280;1905;52.482;9.802;2022-10-23T04:33:17;101040.66;;;11.24;87.65
3780;BME280;1905;52.482;9.802;2022-10-23T04:35:50;101033.63;;;11.23;87.68
3780;BME280;1905;52.482;9.802;2022-10-23T04:38:17;101035.47;;;11.21;87.56
3780;BME280;1905;52.482;9.802;2022-10-23T04:40:45;101032.97;;;11.18;88.60
3780;BME280;1905;52.482;9.802;2022-10-23T04:43:18;101025.28;;;11.12;88.41
3780;BME280;1905;52.482;9.802;2022-10-23T04:45:47;101024.41;;;11.12;87.77
3780;BME280;1905;52.482;9.802;2022-10-23T04:48:15;101030.56;;;11.12;88.14
3780;BME280;1905;52.482;9.802;2022-10-23T04:51:10;101025.50;;;11.06;88.32
3780;BME280;1905;52.482;9.802;2022-10-23T04:53:58;101029.81;;;11.09;88.04
3780;BME280;1905;52.482;9.802;2022-10-23T04:56:45;101036.22;;;11.03;88.24
3780;BME280;1905;52.482;9.802;2022-10-23T04:59:17;101033.59;;;11.03;88.17
3780;BME280;1905;52.482;9.802;2022-10-23T05:01:45;101043.34;;;11.01;88.25
3780;BME280;1905;52.482;9.802;2022-10-23T05:04:13;101031.06;;;11.00;88.15
3780;BME280;1905;52.482;9.802;2022-10-23T05:07:00;101037.44;;;10.95;88.67
3780;BME280;1905;52.482;9.802;2022-10-23T05:09:36;101039.00;;;11.00;88.28
3780;BME280;1905;52.482;9.802;2022-10-23T05:12:15;101033.72;;;11.00;87.59
3780;BME280;1905;52.482;9.802;2022-10-23T05:14:43;101039.09;;;10.97;88.13
3780;BME280;1905;52.482;9.802;2022-10-23T05:17:14;101036.59;;;10.94;87.96
3780;BME280;1905;52.482;9.802;2022-10-23T05:19:46;101027.72;;;10.95;87.76
3780;BME280;1905;52.482;9.802;2022-10-23T05:22:18;101033.00;;;10.95;88.26
3780;BME280;1905;52.482;9.802;2022-10-23T05:24:50;101034.97;;;10.90;87.95
3780;BME280;1905;52.482;9.802;2022-10-23T05:27:22;101031.28;;;10.94;87.72
3780;BME280;1905;52.482;9.802;2022-10-23T05:29:52;101028.66;;;10.94;87.30
3780;BME280;1905;52.482;9.802;2022-10-23T05:32:24;101026.94;;;10.93;87.82
3780;BME280;1905;52.482;9.802;2022-10-23T05:34:54;101022.50;;;10.94;87.61
3780;BME280;1905;52.482;9.802;2022-10-23T05:37:27;101024.28;;;10.93;87.48
3780;BME280;1905;52.482;9.802;2022-10-23T05:40:06;101015.56;;;10.91;87.94
3780;BME280;1905;52.482;9.802;2022-10-23T05:42:36;101013.94;;;10.87;87.90
3780;BME280;1905;52.482;9.802;2022-10-23T05:45:08;101018.28;;;10.90;88.04
3780;BME280;1905;52.482;9.802;2022-10-23T05:47:54;101012.25;;;10.86;87.80
3780;BME280;1905;52.482;9.802;2022-10-23T05:51:19;101006.97;;;10.86;87.69
3780;BME280;1905;52.482;9.802;2022-10-23T05:53:58;101010.50;;;10.85;88.21
3780;BME280;1905;52.482;9.802;2022-10-23T05:56:38;101014.22;;;10.81;88.04
3780;BME280;1905;52.482;9.802;2022-10-23T05:59:27;101014.22;;;10.81;87.97
3780;BME280;1905;52.482;9.802;2022-10-23T06:02:18;101012.38;;;10.83;87.95
3780;BME280;1905;52.482;9.802;2022-10-23T06:04:54;101006.28;;;10.81;87.94
3780;BME280;1905;52.482;9.802;2022-10-23T06:07:41;101006.31;;;10.80;88.42
3780;BME280;1905;52.482;9.802;2022-10-23T06:10:11;101003.66;;;10.81;88.08
3780;BME280;1905;52.482;9.802;2022-10-23T06:12:43;101001.91;;;10.80;88.23
3780;BME280;1905;52.482;9.802;2022-10-23T06:15:14;101001.00;;;10.81;88.18
3780;BME280;1905;52.482;9.802;2022-10-23T06:17:59;100998.34;;;10.81;87.89
3780;BME280;1905;52.482;9.802;2022-10-23T06:20:29;101008.94;;;10.81;87.72
3780;BME280;1905;52.482;9.802;2022-10-23T06:23:16;101000.06;;;10.82;87.59
3780;BME280;1905;52.482;9.802;2022-10-23T06:26:07;100996.81;;;10.75;88.30
3780;BME280;1905;52.482;9.802;2022-10-23T06:28:54;100999.38;;;10.77;87.78
3780;BME280;1905;52.482;9.802;2022-10-23T06:31:22;101000.19;;;10.79;88.01
3780;BME280;1905;52.482;9.802;2022-10-23T06:33:53;101009.66;;;10.85;87.70
3780;BME280;1905;52.482;9.802;2022-10-23T06:36:22;101011.38;;;10.86;88.20
3780;BME280;1905;52.482;9.802;2022-10-23T06:38:53;101012.38;;;10.83;87.73
3780;BME280;1905;52.482;9.802;2022-10-23T06:41:33;101005.34;;;10.82;88.17
3780;BME280;1905;52.482;9.802;2022-10-23T06:44:01;101006.97;;;10.86;87.72
3780;BME280;1905;52.482;9.802;2022-10-23T06:46:47;101003.25;;;10.90;88.44
3780;BME280;1905;52.482;9.802;2022-10-23T06:49:34;101001.59;;;10.88;88.75
3780;BME280;1905;52.482;9.802;2022-10-23T06:52:02;101005.09;;;10.88;88.81
3780;BME280;1905;52.482;9.802;2022-10-23T06:54:30;100997.84;;;10.93;88.72
3780;BME280;1905;52.482;9.802;2022-10-23T06:57:13;100990.72;;;10.95;89.58
3780;BME280;1905;52.482;9.802;2022-10-23T06:59:44;100991.53;;;10.97;88.92
3780;BME280;1905;52.482;9.802;2022-10-23T07:02:12;100989.50;;;11.04;91.38
3780;BME280;1905;52.482;9.802;2022-10-23T07:04:40;100986.00;;;11.03;90.46
3780;BME280;1905;52.482;9.802;2022-10-23T07:07:16;100970.09;;;11.05;89.66
3780;BME280;1905;52.482;9.802;2022-10-23T07:09:46;100970.81;;;11.08;90.75
3780;BME280;1905;52.482;9.802;2022-10-23T07:12:15;100962.69;;;11.13;90.96
3780;BME280;1905;52.482;9.802;2022-10-23T07:14:49;100980.28;;;11.14;89.86
3780;BME280;1905;52.482;9.802;2022-10-23T07:17:17;100981.88;;;11.18;90.06
3780;BME280;1905;52.482;9.802;2022-10-23T07:19:45;100977.06;;;11.27;91.77
3780;BME280;1905;52.482;9.802;2022-10-23T07:22:14;100976.94;;;11.30;91.62
3780;BME280;1905;52.482;9.802;2022-10-23T07:24:53;100973.34;;;11.31;91.02
3780;BME280;1905;52.482;9.802;2022-10-23T07:27:27;100976.75;;;11.35;92.30
3780;BME280;1905;52.482;9.802;2022-10-23T07:29:59;100984.47;;;11.40;91.22
3780;BME280;1905;52.482;9.802;2022-10-23T07:32:32;100982.50;;;11.45;90.92
3780;BME280;1905;52.482;9.802;2022-10-23T07:35:18;100984.00;;;11.50;92.10
3780;BME280;1905;52.482;9.802;2022-10-23T07:38:02;100969.75;;;11.54;92.12
3780;BME280;1905;52.482;9.802;2022-10-23T07:40:35;100965.13;;;11.59;91.62
3780;BME280;1905;52.482;9.802;2022-10-23T07:43:06;100951.69;;;11.64;92.80
3780;BME280;1905;52.482;9.802;2022-10-23T07:45:34;100955.06;;;11.67;92.02
3780;BME280;1905;52.482;9.802;2022-10-23T07:48:10;100958.34;;;11.74;91.89
3780;BME280;1905;52.482;9.802;2022-10-23T07:50:57;100955.69;;;11.74;92.17
3780;BME280;1905;52.482;9.802;2022-10-23T07:53:26;100944.56;;;11.86;92.93
3780;BME280;1905;52.482;9.802;2022-10-23T07:56:00;100955.00;;;11.89;92.57
3780;BME280;1905;52.482;9.802;2022-10-23T07:58:50;100959.22;;;11.93;92.92
3780;BME280;1905;52.482;9.802;2022-10-23T08:01:26;100956.31;;;11.99;93.78
3780;BME280;1905;52.482;9.802;2022-10-23T08:03:56;100959.47;;;12.07;93.83
3780;BME280;1905;52.482;9.802;2022-10-23T08:06:24;100959.31;;;12.10;93.17
3780;BME280;1905;52.482;9.802;2022-10-23T08:08:52;100949.25;;;12.18;94.36
3780;BME280;1905;52.482;9.802;2022-10-23T08:11:23;100950.84;;;12.22;94.00
3780;BME280;1905;52.482;9.802;2022-10-23T08:13:56;100949.69;;;12.28;94.05
3780;BME280;1905;52.482;9.802;2022-10-23T08:16:27;100943.94;;;12.37;94.65
3780;BME280;1905;52.482;9.802;2022-10-23T08:19:13;100943.75;;;12.41;94.47
3780;BME280;1905;52.482;9.802;2022-10-23T08:21:43;100952.19;;;12.49;94.24
3780;BME280;1905;52.482;9.802;2022-10-23T08:24:12;100948.47;;;12.53;93.45
3780;BME280;1905;52.482;9.802;2022-10-23T08:26:42;100951.59;;;12.62;93.97
3780;BME280;1905;52.482;9.802;2022-10-23T08:29:14;100946.00;;;12.68;95.19
3780;BME280;1905;52.482;9.802;2022-10-23T08:31:42;100950.03;;;12.76;94.62
3780;BME280;1905;52.482;9.802;2022-10-23T08:34:20;100950.56;;;12.83;93.00
3780;BME280;1905;52.482;9.802;2022-10-23T08:36:50;100949.34;;;12.90;95.08
3780;BME280;1905;52.482;9.802;2022-10-23T08:39:18;100942.94;;;12.94;93.79
3780;BME280;1905;52.482;9.802;2022-10-23T08:42:00;100947.94;;;13.00;93.99
3780;BME280;1905;52.482;9.802;2022-10-23T08:44:31;100958.16;;;13.09;93.76
3780;BME280;1905;52.482;9.802;2022-10-23T08:47:03;100946.44;;;13.13;94.27
3780;BME280;1905;52.482;9.802;2022-10-23T08:49:46;100937.25;;;13.20;93.06
3780;BME280;1905;52.482;9.802;2022-10-23T08:52:21;100936.00;;;13.27;93.41
3780;BME280;1905;52.482;9.802;2022-10-23T08:54:57;100928.50;;;13.35;92.96
3780;BME280;1905;52.482;9.802;2022-10-23T08:57:31;100926.47;;;13.40;94.79
3780;BME280;1905;52.482;9.802;2022-10-23T09:00:13;100925.41;;;13.44;94.48
3780;BME280;1905;52.482;9.802;2022-10-23T09:02:42;100923.22;;;13.52;94.71
3780;BME280;1905;52.482;9.802;2022-10-23T09:05:15;100924.75;;;13.56;93.13
3780;BME280;1905;52.482;9.802;2022-10-23T09:08:06;100919.72;;;13.67;94.08
3780;BME280;1905;52.482;9.802;2022-10-23T09:10:54;100908.97;;;13.70;91.51
3780;BME280;1905;52.482;9.802;2022-10-23T09:13:38;100905.06;;;13.78;93.99
3780;BME280;1905;52.482;9.802;2022-10-23T09:16:15;100903.00;;;13.83;92.94
3780;BME280;1905;52.482;9.802;2022-10-23T09:18:47;100909.53;;;13.93;92.49
3780;BME280;1905;52.482;9.802;2022-10-23T09:21:16;100918.09;;;13.98;92.51
3780;BME280;1905;52.482;9.802;2022-10-23T09:23:46;100920.19;;;14.08;92.74
3780;BME280;1905;52.482;9.802;2022-10-23T09:26:15;100926.19;;;14.12;92.20
3780;BME280;1905;52.482;9.802;2022-10-23T09:28:46;100924.84;;;14.20;92.58
3780;BME280;1905;52.482;9.802;2022-10-23T09:31:18;100930.84;;;14.24;93.59
3780;BME280;1905;52.482;9.802;2022-10-23T09:33:54;100925.19;;;14.30;90.61
3780;BME280;1905;52.482;9.802;2022-10-23T09:36:22;100924.72;;;14.39;91.73
3780;BME280;1905;52.482;9.802;2022-10-23T09:38:53;100925.16;;;14.47;92.52
3780;BME280;1905;52.482;9.802;2022-10-23T09:41:23;100924.72;;;14.55;91.92
3780;BME280;1905;52.482;9.802;2022-10-23T09:44:16;100926.94;;;14.62;91.90
3780;BME280;1905;52.482;9.802;2022-10-23T09:46:47;100927.56;;;14.67;93.08
3780;BME280;1905;52.482;9.802;2022-10-23T09:49:21;100917.41;;;14.74;92.32
3780;BME280;1905;52.482;9.802;2022-10-23T09:52:01;100916.97;;;14.81;91.99
3780;BME280;1905;52.482;9.802;2022-10-23T09:54:31;100908.66;;;14.87;91.00
3780;BME280;1905;52.482;9.802;2022-10-23T09:57:03;100915.34;;;14.95;90.96
3780;BME280;1905;52.482;9.802;2022-10-23T09:59:32;100909.63;;;15.01;91.46
3780;BME280;1905;52.482;9.802;2022-10-23T10:02:16;100908.34;;;15.08;90.05
3780;BME280;1905;52.482;9.802;2022-10-23T10:05:24;100907.78;;;15.17;89.41
3780;BME280;1905;52.482;9.802;2022-10-23T10:07:56;100909.91;;;15.26;90.53
3780;BME280;1905;52.482;9.802;2022-10-23T10:10:28;100905.00;;;15.34;90.23
3780;BME280;1905;52.482;9.802;2022-10-23T10:13:06;100901.00;;;15.41;91.15
3780;BME280;1905;52.482;9.802;2022-10-23T10:15:46;100894.31;;;15.49;89.44
3780;BME280;1905;52.482;9.802;2022-10-23T10:18:21;100893.09;;;15.55;89.06
3780;BME280;1905;52.482;9.802;2022-10-23T10:21:04;100894.44;;;15.62;89.15
3780;BME280;1905;52.482;9.802;2022-10-23T10:23:44;100884.44;;;15.66;88.45
3780;BME280;1905;52.482;9.802;2022-10-23T10:26:23;100874.38;;;15.71;88.86
3780;BME280;1905;52.482;9.802;2022-10-23T10:29:13;100865.13;;;15.76;88.89
3780;BME280;1905;52.482;9.802;2022-10-23T10:31:55;100867.53;;;15.81;88.17
3780;BME280;1905;52.482;9.802;2022-10-23T10:34:34;100866.28;;;15.86;89.05
3780;BME280;1905;52.482;9.802;2022-10-23T10:37:08;100857.16;;;15.90;87.96
3780;BME280;1905;52.482;9.802;2022-10-23T10:39:46;100851.63;;;15.93;86.30
3780;BME280;1905;52.482;9.802;2022-10-23T10:42:33;100848.59;;;15.99;88.18
3780;BME280;1905;52.482;9.802;2022-10-23T10:45:17;100838.09;;;16.11;87.35
3780;BME280;1905;52.482;9.802;2022-10-23T10:47:57;100834.47;;;16.12;87.52
3780;BME280;1905;52.482;9.802;2022-10-23T10:50:52;100841.31;;;16.16;86.96
3780;BME280;1905;52.482;9.802;2022-10-23T10:53:44;100828.56;;;16.21;86.67
3780;BME280;1905;52.482;9.802;2022-10-23T10:56:18;100838.81;;;16.27;86.64
3780;BME280;1905;52.482;9.802;2022-10-23T10:58:49;100833.28;;;16.30;87.39
3780;BME280;1905;52.482;9.802;2022-10-23T11:01:21;100827.56;;;16.36;87.01
3780;BME280;1905;52.482;9.802;2022-10-23T11:03:55;100825.47;;;16.41;86.97
3780;BME280;1905;52.482;9.802;2022-10-23T11:06:30;100830.47;;;16.45;86.56
3780;BME280;1905;52.482;9.802;2022-10-23T11:09:13;100822.94;;;16.52;85.69
3780;BME280;1905;52.482;9.802;2022-10-23T11:11:47;100817.44;;;16.55;86.26
3780;BME280;1905;52.482;9.802;2022-10-23T11:14:15;100813.41;;;16.62;86.20
3780;BME280;1905;52.482;9.802;2022-10-23T11:16:45;100807.00;;;16.64;85.82
3780;BME280;1905;52.482;9.802;2022-10-23T11:19:20;100802.34;;;16.68;85.65
3780;BME280;1905;52.482;9.802;2022-10-23T11:22:02;100803.63;;;16.75;86.15
3780;BME280;1905;52.482;9.802;2022-10-23T11:28:14;100799.38;;;16.85;85.80
3780;BME280;1905;52.482;9.802;2022-10-23T11:31:07;100785.75;;;16.90;84.85
3780;BME280;1905;52.482;9.802;2022-10-23T11:36:43;100780.59;;;16.99;84.80
3780;BME280;1905;52.482;9.802;2022-10-23T11:39:18;100782.13;;;17.03;85.70
3780;BME280;1905;52.482;9.802;2022-10-23T11:41:51;100770.91;;;17.11;84.98
3780;BME280;1905;52.482;9.802;2022-10-23T11:44:38;100766.97;;;17.16;84.86
3780;BME280;1905;52.482;9.802;2022-10-23T11:47:26;100759.50;;;17.21;84.07
3780;BME280;1905;52.482;9.802;2022-10-23T11:50:25;100763.34;;;17.30;84.11
3780;BME280;1905;52.482;9.802;2022-10-23T11:53:02;100759.47;;;17.34;84.50
3780;BME280;1905;52.482;9.802;2022-10-23T11:56:00;100750.94;;;17.42;83.70
3780;BME280;1905;52.482;9.802;2022-10-23T11:58:41;100750.81;;;17.43;84.08
3780;BME280;1905;52.482;9.802;2022-10-23T12:01:25;100742.47;;;17.48;83.71
3780;BME280;1905;52.482;9.802;2022-10-23T12:03:58;100735.22;;;17.50;82.78
3780;BME280;1905;52.482;9.802;2022-10-23T12:06:29;100727.22;;;17.50;82.65
3780;BME280;1905;52.482;9.802;2022-10-23T12:09:00;100718.03;;;17.54;83.38
3780;BME280;1905;52.482;9.802;2022-10-23T12:11:42;100721.22;;;17.59;83.31
3780;BME280;1905;52.482;9.802;2022-10-23T12:14:29;100715.66;;;17.62;82.29
3780;BME280;1905;52.482;9.802;2022-10-23T12:16:58;100712.78;;;17.65;82.96
3780;BME280;1905;52.482;9.802;2022-10-23T12:19:27;100704.56;;;17.68;83.06
3780;BME280;1905;52.482;9.802;2022-10-23T12:21:57;100708.81;;;17.70;82.37
3780;BME280;1905;52.482;9.802;2022-10-23T12:24:51;100706.88;;;17.72;82.56
3780;BME280;1905;52.482;9.802;2022-10-23T12:27:29;100697.06;;;17.73;82.96
3780;BME280;1905;52.482;9.802;2022-10-23T12:30:10;100703.88;;;17.77;82.00
3780;BME280;1905;52.482;9.802;2022-10-23T12:33:01;100694.78;;;17.79;82.73
3780;BME280;1905;52.482;9.802;2022-10-23T12:38:25;100675.00;;;17.82;81.50
3780;BME280;1905;52.482;9.802;2022-10-23T12:41:07;100671.34;;;17.83;81.31
3780;BME280;1905;52.482;9.802;2022-10-23T12:43:38;100661.31;;;17.87;81.49
3780;BME280;1905;52.482;9.802;2022-10-23T12:46:21;100645.69;;;17.93;81.97
3780;BME280;1905;52.482;9.802;2022-10-23T12:48:53;100643.72;;;17.95;80.66
3780;BME280;1905;52.482;9.802;2022-10-23T12:51:23;100632.69;;;18.00;81.67
3780;BME280;1905;52.482;9.802;2022-10-23T12:53:51;100624.34;;;18.04;80.84
3780;BME280;1905;52.482;9.802;2022-10-23T12:56:20;100630.19;;;18.09;80.88
3780;BME280;1905;52.482;9.802;2022-10-23T12:58:51;100627.16;;;18.14;81.21
3780;BME280;1905;52.482;9.802;2022-10-23T13:01:24;100626.06;;;18.16;80.60
3780;BME280;1905;52.482;9.802;2022-10-23T13:03:57;100613.44;;;18.18;80.72
3780;BME280;1905;52.482;9.802;2022-10-23T13:06:26;100609.56;;;18.22;81.02
3780;BME280;1905;52.482;9.802;2022-10-23T13:08:54;100604.72;;;18.27;81.82
3780;BME280;1905;52.482;9.802;2022-10-23T13:11:33;100609.72;;;18.32;81.71
3780;BME280;1905;52.482;9.802;2022-10-23T13:14:11;100613.72;;;18.37;82.02
3780;BME280;1905;52.482;9.802;2022-10-23T13:16:39;100611.81;;;18.39;82.12
3780;BME280;1905;52.482;9.802;2022-10-23T13:19:21;100608.91;;;18.42;82.40
3780;BME280;1905;52.482;9.802;2022-10-23T13:21:49;100608.16;;;18.40;80.84
3780;BME280;1905;52.482;9.802;2022-10-23T13:24:18;100603.66;;;18.41;81.73
3780;BME280;1905;52.482;9.802;2022-10-23T13:26:47;100582.16;;;18.42;81.46
3780;BME280;1905;52.482;9.802;2022-10-23T13:29:19;100579.50;;;18.42;81.34
3780;BME280;1905;52.482;9.802;2022-10-23T13:31:48;100568.16;;;18.39;80.55
3780;BME280;1905;52.482;9.802;2022-10-23T13:34:22;100560.25;;;18.37;81.08
3780;BME280;1905;52.482;9.802;2022-10-23T13:36:57;100558.44;;;18.38;80.63
3780;BME280;1905;52.482;9.802;2022-10-23T13:39:27;100550.31;;;18.39;81.28
3780;BME280;1905;52.482;9.802;2022-10-23T13:42:00;100546.63;;;18.40;81.44
3780;BME280;1905;52.482;9.802;2022-10-23T13:44:33;100551.03;;;18.41;80.94
3780;BME280;1905;52.482;9.802;2022-10-23T13:47:02;100554.56;;;18.42;81.53
3780;BME280;1905;52.482;9.802;2022-10-23T13:49:30;100564.25;;;18.43;81.12
3780;BME280;1905;52.482;9.802;2022-10-23T13:51:58;100565.84;;;18.45;81.83
3780;BME280;1905;52.482;9.802;2022-10-23T13:54:27;100553.34;;;18.46;81.65
3780;BME280;1905;52.482;9.802;2022-10-23T13:56:55;100561.50;;;18.44;80.98
3780;BME280;1905;52.482;9.802;2022-10-23T13:59:23;100562.34;;;18.45;81.71